Time;durP1;ratioP1;P1;durP2;ratioP2;P2;SDS_P1;SDS_P2;PMS_P1;PMS_P2;Temp;Humidity;BMP_temperature;BMP_pressure;BME280_temperature;BME280_humidity;BME280_pressure;Samples;Min_cycle;Max_cycle;Signal;HPM_P1;HPM_P2
2023/04/29 00:01:32;;;;;;;53.67;31.60;;;13.70;99.90;;;;;;7287823;19;20544;-85
2023/04/29 00:03:58;;;;;;;52.67;32.93;;;13.70;99.90;;;;;;7287204;19;20245;-84
2023/04/29 00:06:24;;;;;;;52.50;31.90;;;13.60;99.90;;;;;;7286489;19;20197;-84
2023/04/29 00:08:51;;;;;;;48.67;30.97;;;13.60;99.90;;;;;;7301484;19;20553;-84
2023/04/29 00:11:17;;;;;;;51.80;31.97;;;13.60;99.90;;;;;;7307960;19;20224;-84
2023/04/29 00:13:42;;;;;;;50.47;30.60;;;13.70;99.90;;;;;;7286642;19;20697;-84
2023/04/29 00:16:14;;;;;;;50.40;32.47;;;13.70;99.90;;;;;;7286824;19;20273;-84
2023/04/29 00:18:40;;;;;;;51.17;31.87;;;13.80;99.90;;;;;;7285175;19;20672;-84
2023/04/29 00:21:05;;;;;;;54.43;32.67;;;13.90;99.90;;;;;;7286635;19;20192;-84
2023/04/29 00:23:32;;;;;;;56.87;33.53;;;13.90;99.90;;;;;;7286300;19;20189;-85
2023/04/29 00:25:58;;;;;;;54.50;32.87;;;13.80;99.90;;;;;;7285107;19;20199;-84
2023/04/29 00:28:24;;;;;;;53.93;32.07;;;13.80;99.90;;;;;;7286669;19;20188;-84
2023/04/29 00:30:50;;;;;;;55.10;32.27;;;13.80;99.90;;;;;;7303895;19;20184;-82
2023/04/29 00:33:16;;;;;;;57.07;33.50;;;13.70;99.90;;;;;;7301941;19;20279;-84
2023/04/29 00:35:41;;;;;;;59.43;33.37;;;13.80;99.90;;;;;;7286541;19;20198;-84
2023/04/29 00:38:07;;;;;;;58.87;32.83;;;13.70;99.90;;;;;;7285067;19;20191;-84
2023/04/29 00:40:35;;;;;;;73.23;37.70;;;13.60;99.90;;;;;;7285729;19;20201;-84
2023/04/29 00:43:00;;;;;;;71.40;38.77;;;13.60;99.90;;;;;;7287298;19;20567;-84
2023/04/29 00:45:26;;;;;;;79.13;40.97;;;13.70;99.90;;;;;;7285624;19;20200;-84
2023/04/29 00:47:52;;;;;;;86.17;42.50;;;13.70;99.90;;;;;;7285428;19;20192;-83
2023/04/29 00:50:18;;;;;;;89.63;43.47;;;13.60;99.90;;;;;;7306657;19;20192;-84
2023/04/29 00:52:45;;;;;;;91.63;43.67;;;13.60;99.90;;;;;;7285743;19;20674;-84
2023/04/29 00:55:12;;;;;;;96.17;46.80;;;13.50;99.90;;;;;;7285279;19;20723;-83
2023/04/29 00:57:38;;;;;;;99.67;47.20;;;13.00;99.90;;;;;;7285973;19;20666;-84
2023/04/29 01:00:04;;;;;;;96.57;46.53;;;12.90;99.90;;;;;;7286964;19;20199;-84
2023/04/29 01:02:30;;;;;;;98.37;47.60;;;12.80;99.90;;;;;;7286574;19;20566;-84
2023/04/29 01:04:56;;;;;;;105.80;48.60;;;12.60;99.90;;;;;;7289930;19;20194;-84
2023/04/29 01:07:44;;;;;;;108.67;49.40;;;12.70;99.90;;;;;;7292804;19;20299;-84
2023/04/29 01:10:27;;;;;;;104.73;48.23;;;12.90;99.90;;;;;;7292384;19;20371;-84
2023/04/29 01:13:02;;;;;;;103.37;48.60;;;13.10;99.90;;;;;;7270657;19;20195;-84
2023/04/29 01:15:44;;;;;;;103.10;48.13;;;13.20;99.90;;;;;;7292118;19;20207;-84
2023/04/29 01:18:40;;;;;;;107.40;50.27;;;13.10;99.90;;;;;;7290223;19;20235;-84
2023/04/29 01:21:05;;;;;;;112.07;49.83;;;13.20;99.90;;;;;;7190028;19;2005095;-84
2023/04/29 01:23:31;;;;;;;113.23;48.80;;;13.20;99.90;;;;;;7301774;19;20195;-84
2023/04/29 01:25:57;;;;;;;125.27;47.77;;;13.20;99.90;;;;;;7296038;19;20198;-85
2023/04/29 01:28:58;;;;;;;118.77;46.50;;;13.20;99.90;;;;;;7296622;19;20196;-84
2023/04/29 01:31:34;;;;;;;119.13;44.83;;;13.30;99.90;;;;;;7211366;19;2005058;-83
2023/04/29 01:34:26;;;;;;;108.00;41.47;;;13.30;99.90;;;;;;7323479;19;20197;-84
2023/04/29 01:37:00;;;;;;;106.97;39.83;;;13.30;99.90;;;;;;7299758;19;20184;-83
2023/04/29 01:40:06;;;;;;;105.73;40.03;;;13.20;99.90;;;;;;7289386;19;20192;-83
2023/04/29 01:42:55;;;;;;;106.67;40.10;;;13.10;99.90;;;;;;7188649;19;2004935;-84
2023/04/29 01:45:21;;;;;;;106.17;40.57;;;13.00;99.90;;;;;;7277370;19;20269;-84
2023/04/29 01:47:49;;;;;;;104.40;39.57;;;13.10;99.90;;;;;;7312617;19;20724;-84
2023/04/29 01:50:15;;;;;;;101.73;39.03;;;13.00;99.90;;;;;;7291025;19;20544;-84
2023/04/29 01:52:41;;;;;;;93.00;37.77;;;13.00;99.90;;;;;;7295542;19;20225;-84
2023/04/29 01:55:07;;;;;;;83.80;35.87;;;13.00;99.90;;;;;;7295423;19;20194;-85
2023/04/29 01:57:44;;;;;;;82.83;35.10;;;13.00;99.90;;;;;;7289774;19;20202;-84
2023/04/29 02:00:37;;;;;;;83.93;34.33;;;13.00;99.90;;;;;;7185942;19;2004390;-84
2023/04/29 02:03:04;;;;;;;71.60;32.63;;;12.90;99.90;;;;;;7292609;19;20198;-84
2023/04/29 02:05:41;;;;;;;72.77;32.77;;;12.80;99.90;;;;;;7286237;19;20770;-83
2023/04/29 02:08:07;;;;;;;76.20;35.37;;;12.80;99.90;;;;;;7289626;19;20192;-84
2023/04/29 02:10:38;;;;;;;82.50;35.67;;;12.90;99.90;;;;;;7285180;19;20197;-84
2023/04/29 02:13:14;;;;;;;81.60;36.73;;;12.70;99.90;;;;;;7287836;19;20212;-84
2023/04/29 02:15:41;;;;;;;88.10;37.20;;;12.50;99.90;;;;;;7285348;19;20209;-84
2023/04/29 02:18:07;;;;;;;94.03;39.33;;;12.50;99.90;;;;;;7286136;19;20194;-84
2023/04/29 02:20:33;;;;;;;95.10;39.10;;;12.50;99.90;;;;;;7287629;19;20677;-82
2023/04/29 02:23:01;;;;;;;110.70;43.93;;;12.40;99.90;;;;;;7287142;19;20199;-84
2023/04/29 02:25:27;;;;;;;97.13;42.07;;;12.10;99.90;;;;;;7286472;19;20198;-84
2023/04/29 02:27:53;;;;;;;103.97;43.57;;;12.00;99.90;;;;;;7288833;19;20198;-83
2023/04/29 02:30:20;;;;;;;90.17;42.03;;;11.60;99.90;;;;;;7300987;19;20760;-83
2023/04/29 02:32:46;;;;;;;86.83;41.30;;;11.70;99.90;;;;;;7301861;19;20196;-84
2023/04/29 02:35:13;;;;;;;82.47;41.53;;;11.60;99.90;;;;;;7288150;19;20698;-83
2023/04/29 02:37:39;;;;;;;92.77;40.10;;;11.60;99.90;;;;;;7285760;19;20210;-84
2023/04/29 02:40:06;;;;;;;85.87;40.23;;;11.70;99.90;;;;;;7286081;19;20185;-84
2023/04/29 02:42:31;;;;;;;94.20;40.13;;;11.70;99.90;;;;;;7286938;19;20209;-84
2023/04/29 02:45:00;;;;;;;89.43;40.50;;;11.80;99.90;;;;;;7283993;19;20194;-84
2023/04/29 02:47:26;;;;;;;87.60;40.50;;;11.70;99.90;;;;;;7286977;19;20575;-84
2023/04/29 02:49:52;;;;;;;79.00;38.00;;;11.70;99.90;;;;;;7288129;19;20193;-83
2023/04/29 02:52:17;;;;;;;87.50;40.00;;;11.80;99.90;;;;;;7307037;19;20278;-84
2023/04/29 02:54:44;;;;;;;76.60;39.93;;;11.90;99.90;;;;;;7286154;19;20193;-84
2023/04/29 02:57:11;;;;;;;69.67;35.43;;;12.00;99.90;;;;;;7139384;19;2875670;-84
2023/04/29 02:59:36;;;;;;;61.90;33.77;;;12.00;99.90;;;;;;7287642;19;20188;-84
2023/04/29 03:02:02;;;;;;;64.80;34.43;;;12.00;99.90;;;;;;7287849;19;20190;-84
2023/04/29 03:04:28;;;;;;;59.70;33.23;;;12.10;99.90;;;;;;7288265;19;20196;-84
2023/04/29 03:06:55;;;;;;;63.73;35.07;;;12.00;99.90;;;;;;7287648;19;20640;-83
2023/04/29 03:09:22;;;;;;;62.40;32.87;;;12.00;99.90;;;;;;7298472;19;20185;-83
2023/04/29 03:11:48;;;;;;;59.27;32.87;;;11.90;99.90;;;;;;7309814;19;20200;-83
2023/04/29 03:14:14;;;;;;;60.30;33.80;;;11.80;99.90;;;;;;7286844;19;20184;-83
2023/04/29 03:16:41;;;;;;;63.00;33.03;;;11.90;99.90;;;;;;7287259;19;21715;-83
2023/04/29 03:19:07;;;;;;;62.17;33.33;;;11.80;99.90;;;;;;7285153;19;20195;-84
2023/04/29 03:21:33;;;;;;;65.27;33.60;;;11.60;99.90;;;;;;7288217;19;20248;-84
2023/04/29 03:23:59;;;;;;;59.07;32.63;;;11.30;99.90;;;;;;7287035;19;20189;-84
2023/04/29 03:26:31;;;;;;;53.70;29.47;;;11.30;99.90;;;;;;7285395;19;20199;-84
2023/04/29 03:28:57;;;;;;;46.80;28.20;;;11.30;99.90;;;;;;7288481;19;20189;-83
2023/04/29 03:31:26;;;;;;;50.97;28.33;;;11.30;99.90;;;;;;7282488;19;20173;-84
2023/04/29 03:33:52;;;;;;;45.93;27.30;;;11.30;99.90;;;;;;7294376;19;20636;-83
2023/04/29 03:36:18;;;;;;;38.17;23.27;;;11.10;99.90;;;;;;7309206;19;20195;-84
2023/04/29 03:39:03;;;;;;;44.77;25.40;;;10.90;99.90;;;;;;7185385;19;2004416;-83
2023/04/29 03:41:29;;;;;;;46.60;25.40;;;11.00;99.90;;;;;;7288424;19;20659;-83
2023/04/29 03:43:59;;;;;;;44.73;26.63;;;11.00;99.90;;;;;;7287651;19;20237;-83
2023/04/29 03:46:27;;;;;;;41.07;24.13;;;11.20;99.90;;;;;;7285148;19;20715;-83
2023/04/29 03:48:54;;;;;;;44.20;25.10;;;10.90;99.90;;;;;;7287581;19;20193;-83
2023/04/29 03:51:22;;;;;;;43.33;25.63;;;10.80;99.90;;;;;;7299971;19;20185;-82
2023/04/29 03:53:52;;;;;;;43.90;25.53;;;11.10;99.90;;;;;;7306018;19;20189;-81
2023/04/29 03:56:18;;;;;;;43.30;24.40;;;11.30;99.90;;;;;;7307513;19;20279;-83
2023/04/29 03:58:45;;;;;;;40.30;22.50;;;11.40;99.90;;;;;;7286523;19;20214;-84
2023/04/29 04:01:11;;;;;;;37.93;21.60;;;11.40;99.90;;;;;;7286706;19;20198;-84
2023/04/29 04:03:43;;;;;;;34.17;19.73;;;11.40;99.90;;;;;;7283313;19;20300;-83
2023/04/29 04:06:08;;;;;;;35.27;18.57;;;11.40;99.90;;;;;;7285092;19;20185;-84
2023/04/29 04:08:34;;;;;;;30.47;18.13;;;11.50;99.90;;;;;;7287014;19;20181;-84
2023/04/29 04:11:09;;;;;;;30.70;18.10;;;11.60;99.90;;;;;;7284676;19;20193;-84
2023/04/29 04:13:39;;;;;;;27.67;16.77;;;11.70;99.90;;;;;;7286462;19;20190;-83
2023/04/29 04:16:05;;;;;;;31.60;17.87;;;11.70;99.90;;;;;;7285499;19;20181;-83
2023/04/29 04:18:31;;;;;;;29.53;17.37;;;11.80;99.90;;;;;;7285042;19;20189;-85
2023/04/29 04:21:03;;;;;;;26.50;16.97;;;11.90;99.90;;;;;;7287058;19;20207;-84
2023/04/29 04:23:29;;;;;;;30.70;15.80;;;11.90;99.90;;;;;;7284638;19;20673;-84
2023/04/29 04:25:55;;;;;;;28.67;17.37;;;12.00;99.90;;;;;;7282745;19;20185;-83
2023/04/29 04:28:50;;;;;;;28.87;16.10;;;12.10;99.90;;;;;;7284353;19;20270;-84
2023/04/29 04:31:37;;;;;;;30.47;16.77;;;12.20;99.90;;;;;;7182378;19;2004667;-83
2023/04/29 04:34:02;;;;;;;28.03;16.93;;;12.30;99.90;;;;;;7286140;19;20197;-84
2023/04/29 04:36:31;;;;;;;29.07;17.40;;;12.30;99.90;;;;;;7285201;19;20191;-83
2023/04/29 04:38:57;;;;;;;34.47;18.27;;;12.40;99.90;;;;;;7285369;19;20190;-85
2023/04/29 04:41:23;;;;;;;28.97;17.47;;;12.40;99.90;;;;;;7285040;19;20683;-84
2023/04/29 04:43:51;;;;;;;36.50;20.00;;;12.40;99.90;;;;;;7300880;19;20190;-82
2023/04/29 04:46:25;;;;;;;32.27;19.53;;;12.40;99.90;;;;;;7282676;19;20199;-83
2023/04/29 04:49:11;;;;;;;32.90;19.53;;;12.50;99.90;;;;;;7286038;19;20900;-84
2023/04/29 04:51:45;;;;;;;40.27;20.23;;;12.50;99.90;;;;;;7286058;19;20221;-84
2023/04/29 04:54:11;;;;;;;34.00;19.53;;;12.40;99.90;;;;;;7285720;19;20308;-83
2023/04/29 04:56:37;;;;;;;34.70;20.27;;;12.30;99.90;;;;;;7284127;19;20194;-85
2023/04/29 04:59:05;;;;;;;35.07;19.50;;;12.20;99.90;;;;;;7285286;19;20197;-84
2023/04/29 05:01:32;;;;;;;33.93;20.37;;;12.10;99.90;;;;;;7283685;19;20217;-83
2023/04/29 05:03:59;;;;;;;32.33;19.10;;;12.00;99.90;;;;;;7284873;19;20346;-84
2023/04/29 05:06:25;;;;;;;32.77;20.07;;;11.90;99.90;;;;;;7283665;19;20194;-82
2023/04/29 05:08:51;;;;;;;37.17;22.10;;;12.00;99.90;;;;;;7301621;19;20186;-82
2023/04/29 05:11:19;;;;;;;39.20;22.87;;;12.10;99.90;;;;;;7297102;19;20621;-84
2023/04/29 05:13:52;;;;;;;39.70;24.10;;;12.20;99.90;;;;;;7264168;19;20199;-82
2023/04/29 05:16:18;;;;;;;43.17;23.13;;;12.20;99.90;;;;;;7305718;19;20194;-84
2023/04/29 05:18:46;;;;;;;45.10;24.03;;;12.20;99.90;;;;;;7283658;19;20185;-84
2023/04/29 05:21:12;;;;;;;41.83;23.30;;;11.90;99.90;;;;;;7284278;19;20175;-82
2023/04/29 05:23:39;;;;;;;45.27;25.13;;;11.90;99.90;;;;;;7284316;19;20664;-84
2023/04/29 05:26:04;;;;;;;42.80;24.23;;;12.00;99.90;;;;;;7283731;19;20249;-84
2023/04/29 05:28:30;;;;;;;41.97;24.10;;;11.90;99.90;;;;;;7283882;19;20196;-84
2023/04/29 05:30:56;;;;;;;42.60;23.53;;;11.60;99.90;;;;;;7283776;19;20198;-83
2023/04/29 05:33:22;;;;;;;45.97;24.77;;;11.50;99.90;;;;;;7289634;19;20524;-82
2023/04/29 05:35:48;;;;;;;46.73;24.57;;;11.30;99.90;;;;;;7305719;19;20181;-83
2023/04/29 05:38:14;;;;;;;44.67;25.00;;;11.40;99.90;;;;;;7283453;19;20189;-83
2023/04/29 05:40:48;;;;;;;44.97;24.27;;;11.50;99.90;;;;;;7283698;19;20672;-82
2023/04/29 05:43:34;;;;;;;47.67;27.07;;;11.50;99.90;;;;;;7181350;19;2004483;-84
2023/04/29 05:46:00;;;;;;;44.53;24.90;;;11.70;99.90;;;;;;7282271;19;20181;-84
2023/04/29 05:48:27;;;;;;;44.60;25.50;;;11.60;99.90;;;;;;7283546;19;20200;-83
2023/04/29 05:50:53;;;;;;;40.93;25.03;;;11.70;99.90;;;;;;7292717;19;20239;-85
2023/04/29 05:53:19;;;;;;;42.00;24.10;;;11.70;99.90;;;;;;7312915;19;21021;-83
2023/04/29 05:55:45;;;;;;;45.97;23.90;;;11.50;99.90;;;;;;7291355;19;20189;-84
2023/04/29 05:58:12;;;;;;;47.07;23.13;;;11.50;99.90;;;;;;7288301;19;20200;-87
2023/04/29 06:00:38;;;;;;;39.50;23.20;;;11.70;99.90;;;;;;7291612;19;20252;-86
2023/04/29 06:03:13;;;;;;;38.90;22.77;;;11.90;99.90;;;;;;7289816;19;20178;-85
2023/04/29 06:05:39;;;;;;;40.67;22.80;;;12.00;99.90;;;;;;7288796;19;20193;-87
2023/04/29 06:08:26;;;;;;;39.37;22.77;;;11.90;99.90;;;;;;7270197;19;20177;-86
2023/04/29 06:10:53;;;;;;;41.20;23.33;;;11.50;99.90;;;;;;7295562;19;20189;-85
2023/04/29 06:13:19;;;;;;;39.17;22.47;;;11.70;99.90;;;;;;7312329;19;20185;-86
2023/04/29 06:15:45;;;;;;;39.73;23.97;;;11.70;99.90;;;;;;7290729;19;20240;-86
2023/04/29 06:18:16;;;;;;;39.80;22.80;;;11.70;99.90;;;;;;7289850;19;20528;-86
2023/04/29 06:20:41;;;;;;;41.50;23.07;;;11.70;99.90;;;;;;7290886;19;20200;-84
2023/04/29 06:23:07;;;;;;;36.27;22.30;;;11.80;99.90;;;;;;7290374;19;20652;-84
2023/04/29 06:25:33;;;;;;;37.93;22.20;;;11.50;99.90;;;;;;7289242;19;20181;-83
2023/04/29 06:28:03;;;;;;;40.37;23.27;;;11.60;99.90;;;;;;7290542;19;20185;-83
2023/04/29 06:30:30;;;;;;;40.57;21.50;;;11.90;99.90;;;;;;7289516;19;20186;-83
2023/04/29 06:32:56;;;;;;;39.63;22.03;;;11.90;99.90;;;;;;7289874;19;20188;-83
2023/04/29 06:35:22;;;;;;;38.90;21.97;;;12.10;99.90;;;;;;7300034;19;20209;-83
2023/04/29 06:38:02;;;;;;;30.90;19.40;;;12.00;99.90;;;;;;7288461;19;20181;-84
2023/04/29 06:40:28;;;;;;;34.53;19.20;;;12.00;99.90;;;;;;7289361;19;20190;-83
2023/04/29 06:43:06;;;;;;;29.63;17.97;;;11.60;99.90;;;;;;7290169;19;20208;-84
2023/04/29 06:45:50;;;;;;;33.90;19.23;;;11.60;99.90;;;;;;7289144;19;20197;-84
2023/04/29 06:48:20;;;;;;;34.87;18.63;;;11.60;99.90;;;;;;7290901;19;20573;-84
2023/04/29 06:50:52;;;;;;;33.43;19.97;;;11.70;99.90;;;;;;7289848;19;20216;-84
2023/04/29 06:53:18;;;;;;;34.37;19.57;;;11.60;99.90;;;;;;7288289;19;20225;-84
2023/04/29 06:55:45;;;;;;;34.10;19.47;;;11.40;99.90;;;;;;7288890;19;20685;-84
2023/04/29 06:58:14;;;;;;;33.27;18.67;;;11.30;99.90;;;;;;7288657;19;20192;-84
2023/04/29 07:00:44;;;;;;;32.27;18.97;;;11.20;99.90;;;;;;7286946;19;20192;-84
2023/04/29 07:03:10;;;;;;;30.60;18.80;;;11.00;99.90;;;;;;7289197;19;20213;-84
2023/04/29 07:05:38;;;;;;;31.57;18.70;;;11.00;99.90;;;;;;7287312;19;20544;-84
2023/04/29 07:08:04;;;;;;;31.37;18.77;;;11.10;99.90;;;;;;7287392;19;20196;-84
2023/04/29 07:10:30;;;;;;;35.57;20.33;;;11.20;99.90;;;;;;7287531;19;20235;-84
2023/04/29 07:12:56;;;;;;;31.63;20.13;;;11.30;99.90;;;;;;7287401;19;20651;-82
2023/04/29 07:15:22;;;;;;;31.50;19.90;;;11.20;99.90;;;;;;7304147;19;20189;-81
2023/04/29 07:17:47;;;;;;;35.40;20.47;;;11.30;99.90;;;;;;7302147;19;20197;-83
2023/04/29 07:20:13;;;;;;;36.60;20.23;;;11.30;99.90;;;;;;7286957;19;20319;-82
2023/04/29 07:22:39;;;;;;;36.90;20.33;;;11.30;99.90;;;;;;7287957;19;20196;-83
2023/04/29 07:25:05;;;;;;;33.40;20.83;;;11.50;99.90;;;;;;7287870;19;20193;-83
2023/04/29 07:27:33;;;;;;;37.63;19.93;;;11.60;99.90;;;;;;7287404;19;20361;-83
2023/04/29 07:30:00;;;;;;;35.77;19.93;;;11.60;99.90;;;;;;7285430;19;20189;-83
2023/04/29 07:32:26;;;;;;;37.07;20.53;;;11.60;99.90;;;;;;7284223;19;20184;-83
2023/04/29 07:34:52;;;;;;;37.03;21.40;;;11.50;99.90;;;;;;7304086;19;20225;-82
2023/04/29 07:37:18;;;;;;;34.07;20.70;;;11.40;99.90;;;;;;7302353;19;20546;-84
2023/04/29 07:39:44;;;;;;;38.40;22.00;;;11.60;99.90;;;;;;7284396;19;20189;-84
2023/04/29 07:42:10;;;;;;;33.37;21.53;;;11.60;99.90;;;;;;7288201;19;20185;-84
2023/04/29 07:44:36;;;;;;;34.90;22.23;;;11.50;99.90;;;;;;7288895;19;20246;-83
2023/04/29 07:47:02;;;;;;;34.10;20.97;;;11.70;99.90;;;;;;7285774;19;20200;-82
2023/04/29 07:49:31;;;;;;;36.67;21.53;;;11.90;99.90;;;;;;7286757;19;20188;-83
2023/04/29 07:51:56;;;;;;;40.70;23.17;;;12.00;99.90;;;;;;7285655;19;20187;-82
2023/04/29 07:54:22;;;;;;;43.47;23.93;;;12.20;99.90;;;;;;7300596;19;20533;-83
2023/04/29 07:56:48;;;;;;;41.13;24.23;;;12.40;99.90;;;;;;7304367;19;20192;-83
2023/04/29 07:59:15;;;;;;;40.37;23.77;;;12.40;99.90;;;;;;7285387;19;20197;-87
2023/04/29 08:01:41;;;;;;;44.13;24.67;;;12.50;99.90;;;;;;7286704;19;20190;-83
2023/04/29 08:04:07;;;;;;;45.37;24.90;;;12.50;99.90;;;;;;7285368;19;20573;-82
2023/04/29 08:06:40;;;;;;;42.13;25.50;;;12.60;99.90;;;;;;7284021;19;20187;-82
2023/04/29 08:09:09;;;;;;;45.57;26.00;;;12.80;99.90;;;;;;7288645;19;20526;-84
2023/04/29 08:11:35;;;;;;;45.87;27.30;;;13.00;99.90;;;;;;7288306;19;20186;-81
2023/04/29 08:14:02;;;;;;;42.57;27.53;;;13.10;99.90;;;;;;7308058;19;20201;-81
2023/04/29 08:16:28;;;;;;;47.37;28.47;;;12.90;99.90;;;;;;7308596;19;20183;-82
2023/04/29 08:18:55;;;;;;;40.80;28.20;;;12.90;99.90;;;;;;7286038;19;20203;-81
2023/04/29 08:21:20;;;;;;;45.40;28.37;;;12.70;99.90;;;;;;7306249;19;20225;-81
2023/04/29 08:23:46;;;;;;;46.67;29.73;;;12.70;99.90;;;;;;7284869;19;20549;-83
2023/04/29 08:26:12;;;;;;;50.40;30.67;;;12.80;99.90;;;;;;7285739;19;20218;-83
2023/04/29 08:28:38;;;;;;;52.50;32.57;;;12.90;99.90;;;;;;7287293;19;20194;-83
2023/04/29 08:31:06;;;;;;;52.00;32.60;;;13.00;99.90;;;;;;7285469;19;20190;-82
2023/04/29 08:33:35;;;;;;;60.03;33.37;;;13.10;99.90;;;;;;7281010;19;20198;-82
2023/04/29 08:36:04;;;;;;;55.17;32.77;;;13.20;99.90;;;;;;7284502;19;20217;-83
2023/04/29 08:38:30;;;;;;;56.50;33.00;;;13.20;99.90;;;;;;7285132;19;20209;-81
2023/04/29 08:40:56;;;;;;;50.13;30.63;;;13.30;99.90;;;;;;7282667;19;20199;-81
2023/04/29 08:43:23;;;;;;;47.90;30.33;;;13.40;99.90;;;;;;7300525;19;20191;-81
2023/04/29 08:45:49;;;;;;;46.20;29.30;;;13.50;99.90;;;;;;7304257;19;20191;-81
2023/04/29 08:48:18;;;;;;;46.00;29.13;;;13.60;99.90;;;;;;7283281;19;20191;-81
2023/04/29 08:50:44;;;;;;;46.27;27.77;;;13.40;99.90;;;;;;7284436;19;20859;-82
2023/04/29 08:53:12;;;;;;;48.10;29.00;;;13.30;99.90;;;;;;7282495;19;20211;-81
2023/04/29 08:55:46;;;;;;;49.10;29.10;;;13.70;99.90;;;;;;7283994;19;20208;-81
2023/04/29 08:58:12;;;;;;;45.23;28.40;;;14.10;99.90;;;;;;7281630;19;20184;-82
2023/04/29 09:00:42;;;;;;;44.93;27.17;;;14.60;99.90;;;;;;7282073;19;20192;-82
2023/04/29 09:03:40;;;;;;;44.77;27.00;;;14.90;99.90;;;;;;7281897;19;20201;-82
2023/04/29 09:06:09;;;;;;;48.30;26.97;;;15.00;99.90;;;;;;7177982;19;2005065;-82
2023/04/29 09:08:35;;;;;;;44.27;26.83;;;15.00;99.90;;;;;;7282654;19;20186;-81
2023/04/29 09:11:02;;;;;;;40.17;26.67;;;15.10;99.90;;;;;;7281707;19;20285;-82
2023/04/29 09:13:29;;;;;;;44.53;26.47;;;15.40;99.90;;;;;;7282159;19;20190;-82
2023/04/29 09:15:56;;;;;;;40.50;26.20;;;15.60;99.90;;;;;;7283747;19;20255;-81
2023/04/29 09:18:40;;;;;;;41.10;26.50;;;15.70;99.90;;;;;;7304124;19;20210;-81
2023/04/29 09:21:13;;;;;;;37.93;25.67;;;15.50;99.90;;;;;;7181491;19;2004991;-82
2023/04/29 09:23:39;;;;;;;39.10;24.47;;;15.50;99.90;;;;;;7284206;19;20221;-81
2023/04/29 09:26:04;;;;;;;38.87;24.60;;;15.30;99.90;;;;;;7289846;19;20194;-81
2023/04/29 09:28:30;;;;;;;37.73;24.33;;;15.30;99.90;;;;;;7290339;19;20277;-81
2023/04/29 09:30:56;;;;;;;40.00;24.73;;;15.20;99.90;;;;;;7291148;19;20201;-81
2023/04/29 09:33:22;;;;;;;34.97;23.10;;;15.20;99.90;;;;;;7312474;19;20184;-81
2023/04/29 09:35:48;;;;;;;37.43;23.90;;;15.20;99.90;;;;;;7291817;19;20253;-81
2023/04/29 09:38:15;;;;;;;35.77;22.93;;;15.30;99.90;;;;;;7290554;19;20530;-81
2023/04/29 09:40:42;;;;;;;37.70;23.43;;;15.30;99.90;;;;;;7292103;19;20202;-81
2023/04/29 09:43:15;;;;;;;37.33;22.20;;;15.10;99.90;;;;;;7290826;19;20196;-80
2023/04/29 09:45:44;;;;;;;38.10;23.03;;;14.90;99.90;;;;;;7292199;19;20193;-81
2023/04/29 09:48:11;;;;;;;38.03;23.30;;;14.90;99.90;;;;;;7290544;19;20510;-81
2023/04/29 09:50:41;;;;;;;37.70;23.70;;;14.90;99.90;;;;;;7291865;19;20202;-80
2023/04/29 09:53:08;;;;;;;39.00;24.73;;;14.80;99.90;;;;;;7290037;19;20674;-81
2023/04/29 09:56:00;;;;;;;39.23;24.43;;;14.80;99.90;;;;;;7290658;19;20189;-80
2023/04/29 09:58:29;;;;;;;38.20;24.87;;;14.90;99.90;;;;;;7268446;19;20221;-78
2023/04/29 10:00:59;;;;;;;39.57;25.23;;;14.70;99.90;;;;;;7290872;19;20202;-81
2023/04/29 10:03:31;;;;;;;38.80;24.00;;;14.60;99.90;;;;;;7291426;19;20732;-81
2023/04/29 10:05:57;;;;;;;41.03;24.40;;;14.90;99.90;;;;;;7287976;19;20189;-81
2023/04/29 10:08:24;;;;;;;42.03;24.93;;;15.10;99.90;;;;;;7298351;19;20189;-81
2023/04/29 10:10:56;;;;;;;39.10;24.83;;;15.50;99.90;;;;;;7312267;19;20189;-82
2023/04/29 10:13:25;;;;;;;40.70;25.87;;;15.80;99.90;;;;;;7287922;19;20193;-82
2023/04/29 10:16:24;;;;;;;39.97;25.30;;;15.90;99.90;;;;;;7290911;19;20191;-81
2023/04/29 10:18:55;;;;;;;50.27;25.97;;;16.40;99.90;;;;;;7186723;19;2004994;-81
2023/04/29 10:21:29;;;;;;;37.10;23.60;;;16.80;99.90;;;;;;7289330;19;20195;-82
2023/04/29 10:23:56;;;;;;;31.37;22.33;;;17.10;99.90;;;;;;7267913;19;20185;-81
2023/04/29 10:26:26;;;;;;;33.90;22.63;;;16.80;99.90;;;;;;7309091;19;20256;-79
2023/04/29 10:28:58;;;;;;;36.03;23.13;;;16.20;99.90;;;;;;7311867;19;20593;-81
2023/04/29 10:31:26;;;;;;;34.40;23.47;;;16.20;99.90;;;;;;7277606;19;20194;-81
2023/04/29 10:33:57;;;;;;;33.33;22.40;;;16.10;99.90;;;;;;7309187;19;20548;-79
2023/04/29 10:36:26;;;;;;;32.97;20.97;;;16.30;99.90;;;;;;7310988;19;20550;-81
2023/04/29 10:38:56;;;;;;;33.97;20.77;;;16.30;99.90;;;;;;7291112;19;20185;-81
2023/04/29 10:41:27;;;;;;;34.33;22.60;;;16.40;99.90;;;;;;7270152;19;20202;-80
2023/04/29 10:43:54;;;;;;;32.70;22.33;;;17.00;99.90;;;;;;7304375;19;20217;-80
2023/04/29 10:46:25;;;;;;;30.07;21.03;;;17.70;99.90;;;;;;7312092;19;20177;-83
2023/04/29 10:49:02;;;;;;;33.27;22.03;;;18.20;99.90;;;;;;7291045;19;20198;-82
2023/04/29 10:51:30;;;;;;;29.63;21.17;;;18.70;99.90;;;;;;7184444;19;2004504;-81
2023/04/29 10:54:03;;;;;;;29.33;19.67;;;18.70;99.90;;;;;;7289106;19;20184;-81
2023/04/29 10:56:39;;;;;;;31.57;19.93;;;18.50;99.90;;;;;;7287169;19;20971;-83
2023/04/29 10:59:08;;;;;;;32.30;20.50;;;18.20;99.90;;;;;;7288723;19;20198;-83
2023/04/29 11:01:41;;;;;;;29.63;21.00;;;17.90;99.90;;;;;;7289065;19;20190;-82
2023/04/29 11:04:08;;;;;;;31.00;21.03;;;17.80;99.90;;;;;;7287338;19;20711;-83
2023/04/29 11:06:34;;;;;;;32.60;21.40;;;17.80;99.90;;;;;;7288344;19;20184;-82
2023/04/29 11:09:07;;;;;;;33.83;21.37;;;17.80;99.90;;;;;;7288646;19;20195;-82
2023/04/29 11:11:45;;;;;;;30.77;20.30;;;17.90;99.90;;;;;;7292088;19;20206;-82
2023/04/29 11:14:13;;;;;;;30.17;19.53;;;17.90;99.90;;;;;;7289847;19;20189;-82
2023/04/29 11:16:51;;;;;;;29.67;19.73;;;17.50;99.90;;;;;;7295806;19;20191;-82
2023/04/29 11:19:17;;;;;;;29.50;20.90;;;17.30;99.90;;;;;;7302033;19;20188;-82
2023/04/29 11:21:45;;;;;;;33.20;20.53;;;17.00;99.90;;;;;;7317152;19;20217;-82
2023/04/29 11:24:14;;;;;;;31.47;21.00;;;16.80;99.90;;;;;;7319102;19;20198;-81
2023/04/29 11:26:41;;;;;;;29.47;20.83;;;16.70;99.90;;;;;;7293958;19;20196;-82
2023/04/29 11:29:10;;;;;;;31.90;19.63;;;16.50;99.90;;;;;;7290808;19;20191;-82
2023/04/29 11:31:38;;;;;;;31.53;20.83;;;16.40;99.90;;;;;;7288039;19;20428;-83
2023/04/29 11:34:05;;;;;;;27.07;18.60;;;16.60;99.90;;;;;;7286795;19;20180;-83
2023/04/29 11:36:32;;;;;;;28.40;18.83;;;17.20;99.90;;;;;;7286371;19;20211;-83
2023/04/29 11:39:05;;;;;;;30.10;18.10;;;17.70;99.90;;;;;;7285869;19;20295;-82
2023/04/29 11:41:31;;;;;;;30.90;18.03;;;18.10;99.90;;;;;;7285959;19;20192;-83
2023/04/29 11:43:58;;;;;;;28.57;17.43;;;18.00;99.90;;;;;;7286057;19;20531;-82
2023/04/29 11:46:24;;;;;;;29.47;17.63;;;18.40;99.90;;;;;;7291489;19;20587;-82
2023/04/29 11:48:50;;;;;;;29.03;18.03;;;18.60;99.90;;;;;;7309232;19;20202;-84
2023/04/29 11:51:18;;;;;;;31.90;17.90;;;18.40;99.90;;;;;;7286477;19;20186;-84
2023/04/29 11:53:44;;;;;;;24.33;17.70;;;18.20;99.90;;;;;;7285626;19;20182;-82
2023/04/29 11:56:10;;;;;;;24.33;16.33;;;18.00;99.90;;;;;;7287413;19;20208;-81
2023/04/29 11:58:38;;;;;;;28.00;17.93;;;17.70;99.90;;;;;;7286367;19;20202;-83
2023/04/29 12:01:04;;;;;;;26.97;16.17;;;17.70;99.90;;;;;;7285911;19;20207;-82
2023/04/29 12:03:32;;;;;;;27.33;16.97;;;17.40;99.90;;;;;;7286639;19;20289;-83
2023/04/29 12:06:00;;;;;;;24.23;16.17;;;17.40;99.90;;;;;;7284528;19;20188;-82
2023/04/29 12:08:28;;;;;;;25.07;17.03;;;17.60;99.90;;;;;;7281662;19;20207;-82
2023/04/29 12:10:57;;;;;;;25.07;16.67;;;17.80;99.90;;;;;;7297351;19;20218;-82
2023/04/29 12:13:28;;;;;;;24.30;15.50;;;18.30;99.90;;;;;;7299798;19;20781;-82
2023/04/29 12:15:55;;;;;;;26.63;15.97;;;18.60;99.90;;;;;;7290152;19;20204;-82
2023/04/29 12:18:22;;;;;;;22.50;15.60;;;19.00;99.90;;;;;;7307763;19;20180;-83
2023/04/29 12:20:53;;;;;;;20.70;14.93;;;19.10;99.90;;;;;;7285293;19;20185;-81
2023/04/29 12:23:21;;;;;;;24.43;15.97;;;19.40;99.90;;;;;;7286139;19;20188;-83
2023/04/29 12:25:54;;;;;;;25.93;17.10;;;19.50;99.90;;;;;;7285119;19;20208;-82
2023/04/29 12:28:21;;;;;;;24.27;17.13;;;19.10;99.90;;;;;;7287900;19;20252;-82
2023/04/29 12:30:48;;;;;;;25.40;16.67;;;18.80;99.90;;;;;;7285195;19;20655;-82
2023/04/29 12:33:26;;;;;;;24.97;17.13;;;18.20;99.90;;;;;;7286004;19;20177;-82
2023/04/29 12:35:56;;;;;;;25.47;17.30;;;18.20;99.90;;;;;;7287260;19;20196;-82